sensor_id;sensor_type;location;lat;lon;timestamp;P1;durP1;ratioP1;P2;durP2;ratioP2
23658;SDS011;12006;42.666;23.326;2023-12-29T00:00:17;32.30;;;16.63;;
23658;SDS011;12006;42.666;23.326;2023-12-29T00:02:42;27.07;;;16.43;;
23658;SDS011;12006;42.666;23.326;2023-12-29T00:05:08;21.67;;;14.47;;
23658;SDS011;12006;42.666;23.326;2023-12-29T00:07:33;22.60;;;15.63;;
23658;SDS011;12006;42.666;23.326;2023-12-29T00:09:58;29.50;;;16.73;;
23658;SDS011;12006;42.666;23.326;2023-12-29T00:12:24;27.13;;;16.57;;
23658;SDS011;12006;42.666;23.326;2023-12-29T00:14:49;22.47;;;14.67;;
23658;SDS011;12006;42.666;23.326;2023-12-29T00:17:14;22.47;;;16.83;;
23658;SDS011;12006;42.666;23.326;2023-12-29T00:19:39;28.90;;;16.30;;
23658;SDS011;12006;42.666;23.326;2023-12-29T00:22:04;28.20;;;15.67;;
23658;SDS011;12006;42.666;23.326;2023-12-29T00:24:30;31.67;;;14.57;;
23658;SDS011;12006;42.666;23.326;2023-12-29T00:26:56;21.97;;;14.97;;
23658;SDS011;12006;42.666;23.326;2023-12-29T00:29:22;26.30;;;15.67;;
23658;SDS011;12006;42.666;23.326;2023-12-29T00:31:47;29.00;;;15.33;;
23658;SDS011;12006;42.666;23.326;2023-12-29T00:34:12;22.47;;;14.60;;
23658;SDS011;12006;42.666;23.326;2023-12-29T00:36:37;25.50;;;15.40;;
23658;SDS011;12006;42.666;23.326;2023-12-29T00:39:02;21.37;;;13.70;;
23658;SDS011;12006;42.666;23.326;2023-12-29T00:41:28;23.60;;;15.27;;
23658;SDS011;12006;42.666;23.326;2023-12-29T00:43:53;22.27;;;14.90;;
23658;SDS011;12006;42.666;23.326;2023-12-29T00:46:18;23.73;;;14.33;;
23658;SDS011;12006;42.666;23.326;2023-12-29T00:48:43;22.70;;;13.87;;
23658;SDS011;12006;42.666;23.326;2023-12-29T00:51:09;26.47;;;14.90;;
23658;SDS011;12006;42.666;23.326;2023-12-29T00:53:34;24.77;;;14.00;;
23658;SDS011;12006;42.666;23.326;2023-12-29T00:55:59;17.83;;;14.20;;
23658;SDS011;12006;42.666;23.326;2023-12-29T00:58:25;20.60;;;13.27;;
23658;SDS011;12006;42.666;23.326;2023-12-29T01:00:50;25.97;;;15.27;;
23658;SDS011;12006;42.666;23.326;2023-12-29T01:03:15;23.67;;;15.80;;
23658;SDS011;12006;42.666;23.326;2023-12-29T01:05:40;24.67;;;14.67;;
23658;SDS011;12006;42.666;23.326;2023-12-29T01:08:06;24.93;;;14.73;;
23658;SDS011;12006;42.666;23.326;2023-12-29T01:10:31;25.67;;;14.10;;
23658;SDS011;12006;42.666;23.326;2023-12-29T01:12:56;21.80;;;14.87;;
23658;SDS011;12006;42.666;23.326;2023-12-29T01:15:21;26.43;;;14.97;;
23658;SDS011;12006;42.666;23.326;2023-12-29T01:17:46;25.03;;;14.47;;
23658;SDS011;12006;42.666;23.326;2023-12-29T01:20:12;21.10;;;14.27;;
23658;SDS011;12006;42.666;23.326;2023-12-29T01:22:37;26.47;;;15.57;;
23658;SDS011;12006;42.666;23.326;2023-12-29T01:25:02;24.23;;;15.20;;
23658;SDS011;12006;42.666;23.326;2023-12-29T01:27:28;27.67;;;17.17;;
23658;SDS011;12006;42.666;23.326;2023-12-29T01:29:54;25.70;;;16.33;;
23658;SDS011;12006;42.666;23.326;2023-12-29T01:32:19;26.60;;;16.97;;
23658;SDS011;12006;42.666;23.326;2023-12-29T01:34:44;27.63;;;16.23;;
23658;SDS011;12006;42.666;23.326;2023-12-29T01:37:10;22.27;;;15.13;;
23658;SDS011;12006;42.666;23.326;2023-12-29T01:39:35;25.67;;;15.53;;
23658;SDS011;12006;42.666;23.326;2023-12-29T01:42:00;22.07;;;16.13;;
23658;SDS011;12006;42.666;23.326;2023-12-29T01:44:25;28.03;;;16.13;;
23658;SDS011;12006;42.666;23.326;2023-12-29T01:46:51;24.70;;;15.00;;
23658;SDS011;12006;42.666;23.326;2023-12-29T01:49:19;25.07;;;16.60;;
23658;SDS011;12006;42.666;23.326;2023-12-29T01:51:44;27.53;;;17.40;;
23658;SDS011;12006;42.666;23.326;2023-12-29T01:54:11;24.50;;;17.17;;
23658;SDS011;12006;42.666;23.326;2023-12-29T01:56:37;23.37;;;14.33;;
23658;SDS011;12006;42.666;23.326;2023-12-29T01:59:02;31.03;;;17.27;;
23658;SDS011;12006;42.666;23.326;2023-12-29T02:01:29;33.37;;;17.83;;
23658;SDS011;12006;42.666;23.326;2023-12-29T02:03:54;25.87;;;17.80;;
23658;SDS011;12006;42.666;23.326;2023-12-29T02:06:19;26.37;;;16.33;;
23658;SDS011;12006;42.666;23.326;2023-12-29T02:08:46;25.23;;;16.53;;
23658;SDS011;12006;42.666;23.326;2023-12-29T02:11:11;30.77;;;17.77;;
23658;SDS011;12006;42.666;23.326;2023-12-29T02:13:37;27.03;;;16.20;;
23658;SDS011;12006;42.666;23.326;2023-12-29T02:16:07;28.37;;;17.23;;
23658;SDS011;12006;42.666;23.326;2023-12-29T02:18:33;25.87;;;15.60;;
23658;SDS011;12006;42.666;23.326;2023-12-29T02:20:59;30.87;;;18.63;;
23658;SDS011;12006;42.666;23.326;2023-12-29T02:23:24;32.03;;;19.27;;
23658;SDS011;12006;42.666;23.326;2023-12-29T02:25:50;28.87;;;18.97;;
23658;SDS011;12006;42.666;23.326;2023-12-29T02:28:24;30.13;;;18.50;;
23658;SDS011;12006;42.666;23.326;2023-12-29T02:30:56;26.77;;;17.47;;
23658;SDS011;12006;42.666;23.326;2023-12-29T02:33:25;26.80;;;18.80;;
23658;SDS011;12006;42.666;23.326;2023-12-29T02:35:52;34.20;;;19.50;;
23658;SDS011;12006;42.666;23.326;2023-12-29T02:38:17;29.90;;;19.70;;
23658;SDS011;12006;42.666;23.326;2023-12-29T02:40:43;26.63;;;17.73;;
23658;SDS011;12006;42.666;23.326;2023-12-29T02:43:08;24.00;;;17.97;;
23658;SDS011;12006;42.666;23.326;2023-12-29T02:45:34;27.43;;;16.90;;
23658;SDS011;12006;42.666;23.326;2023-12-29T02:47:59;25.83;;;17.93;;
23658;SDS011;12006;42.666;23.326;2023-12-29T02:50:24;29.03;;;19.97;;
23658;SDS011;12006;42.666;23.326;2023-12-29T02:52:49;30.90;;;19.70;;
23658;SDS011;12006;42.666;23.326;2023-12-29T02:55:15;27.40;;;18.27;;
23658;SDS011;12006;42.666;23.326;2023-12-29T02:57:40;24.30;;;16.87;;
23658;SDS011;12006;42.666;23.326;2023-12-29T03:00:05;28.90;;;17.90;;
23658;SDS011;12006;42.666;23.326;2023-12-29T03:02:31;31.57;;;18.70;;
23658;SDS011;12006;42.666;23.326;2023-12-29T03:04:56;34.50;;;19.83;;
23658;SDS011;12006;42.666;23.326;2023-12-29T03:07:21;29.43;;;19.50;;
23658;SDS011;12006;42.666;23.326;2023-12-29T03:09:47;30.60;;;19.27;;
23658;SDS011;12006;42.666;23.326;2023-12-29T03:12:12;30.23;;;20.43;;
23658;SDS011;12006;42.666;23.326;2023-12-29T03:14:37;32.03;;;20.30;;
23658;SDS011;12006;42.666;23.326;2023-12-29T03:17:03;29.17;;;17.50;;
23658;SDS011;12006;42.666;23.326;2023-12-29T03:19:28;24.93;;;17.77;;
23658;SDS011;12006;42.666;23.326;2023-12-29T03:21:54;27.90;;;18.33;;
23658;SDS011;12006;42.666;23.326;2023-12-29T03:24:19;32.43;;;17.07;;
23658;SDS011;12006;42.666;23.326;2023-12-29T03:26:44;22.87;;;15.87;;
23658;SDS011;12006;42.666;23.326;2023-12-29T03:29:11;25.57;;;16.53;;
23658;SDS011;12006;42.666;23.326;2023-12-29T03:31:36;28.80;;;17.17;;
23658;SDS011;12006;42.666;23.326;2023-12-29T03:34:01;27.17;;;15.37;;
23658;SDS011;12006;42.666;23.326;2023-12-29T03:36:27;24.07;;;16.30;;
23658;SDS011;12006;42.666;23.326;2023-12-29T03:38:52;26.43;;;17.10;;
23658;SDS011;12006;42.666;23.326;2023-12-29T03:41:17;29.03;;;17.07;;
23658;SDS011;12006;42.666;23.326;2023-12-29T03:43:43;23.47;;;15.90;;
23658;SDS011;12006;42.666;23.326;2023-12-29T03:46:18;34.43;;;16.53;;
23658;SDS011;12006;42.666;23.326;2023-12-29T03:48:44;25.40;;;16.40;;
23658;SDS011;12006;42.666;23.326;2023-12-29T03:51:09;28.33;;;17.07;;
23658;SDS011;12006;42.666;23.326;2023-12-29T03:53:34;24.20;;;16.30;;
23658;SDS011;12006;42.666;23.326;2023-12-29T03:56:03;29.33;;;17.40;;
23658;SDS011;12006;42.666;23.326;2023-12-29T03:58:29;28.13;;;17.80;;
23658;SDS011;12006;42.666;23.326;2023-12-29T04:00:54;28.90;;;17.43;;
23658;SDS011;12006;42.666;23.326;2023-12-29T04:03:19;30.77;;;16.77;;
23658;SDS011;12006;42.666;23.326;2023-12-29T04:05:44;26.03;;;17.53;;
23658;SDS011;12006;42.666;23.326;2023-12-29T04:08:09;32.13;;;16.73;;
23658;SDS011;12006;42.666;23.326;2023-12-29T04:10:35;25.90;;;17.00;;
23658;SDS011;12006;42.666;23.326;2023-12-29T04:13:00;29.03;;;17.30;;
23658;SDS011;12006;42.666;23.326;2023-12-29T04:15:26;26.23;;;17.33;;
23658;SDS011;12006;42.666;23.326;2023-12-29T04:17:51;26.03;;;15.87;;
23658;SDS011;12006;42.666;23.326;2023-12-29T04:20:16;27.57;;;16.80;;
23658;SDS011;12006;42.666;23.326;2023-12-29T04:22:41;27.63;;;18.13;;
23658;SDS011;12006;42.666;23.326;2023-12-29T04:25:07;25.47;;;16.10;;
23658;SDS011;12006;42.666;23.326;2023-12-29T04:27:32;25.27;;;15.97;;
23658;SDS011;12006;42.666;23.326;2023-12-29T04:29:58;25.03;;;15.57;;
23658;SDS011;12006;42.666;23.326;2023-12-29T04:32:23;30.00;;;18.87;;
23658;SDS011;12006;42.666;23.326;2023-12-29T04:34:48;28.10;;;17.43;;
23658;SDS011;12006;42.666;23.326;2023-12-29T04:37:13;33.73;;;18.23;;
23658;SDS011;12006;42.666;23.326;2023-12-29T04:39:39;25.73;;;15.53;;
23658;SDS011;12006;42.666;23.326;2023-12-29T04:42:04;33.17;;;17.13;;
23658;SDS011;12006;42.666;23.326;2023-12-29T04:44:29;22.73;;;16.07;;
23658;SDS011;12006;42.666;23.326;2023-12-29T04:46:54;28.77;;;16.03;;
23658;SDS011;12006;42.666;23.326;2023-12-29T04:49:20;29.53;;;18.53;;
23658;SDS011;12006;42.666;23.326;2023-12-29T04:51:45;29.03;;;16.93;;
23658;SDS011;12006;42.666;23.326;2023-12-29T04:54:13;27.67;;;16.00;;
23658;SDS011;12006;42.666;23.326;2023-12-29T04:56:38;24.43;;;15.47;;
23658;SDS011;12006;42.666;23.326;2023-12-29T04:59:03;24.43;;;17.37;;
23658;SDS011;12006;42.666;23.326;2023-12-29T05:01:29;28.53;;;17.87;;
23658;SDS011;12006;42.666;23.326;2023-12-29T05:03:54;23.43;;;15.53;;
23658;SDS011;12006;42.666;23.326;2023-12-29T05:06:19;24.37;;;17.43;;
23658;SDS011;12006;42.666;23.326;2023-12-29T05:08:44;29.43;;;17.40;;
23658;SDS011;12006;42.666;23.326;2023-12-29T05:11:09;27.67;;;17.97;;
23658;SDS011;12006;42.666;23.326;2023-12-29T05:13:35;27.33;;;18.63;;
23658;SDS011;12006;42.666;23.326;2023-12-29T05:16:00;23.60;;;16.53;;
23658;SDS011;12006;42.666;23.326;2023-12-29T05:18:25;32.70;;;18.67;;
23658;SDS011;12006;42.666;23.326;2023-12-29T05:20:52;22.97;;;16.20;;
23658;SDS011;12006;42.666;23.326;2023-12-29T05:23:18;23.87;;;15.70;;
23658;SDS011;12006;42.666;23.326;2023-12-29T05:25:43;24.60;;;16.87;;
23658;SDS011;12006;42.666;23.326;2023-12-29T05:28:08;26.43;;;15.13;;
23658;SDS011;12006;42.666;23.326;2023-12-29T05:30:33;26.13;;;17.23;;
23658;SDS011;12006;42.666;23.326;2023-12-29T05:32:58;20.33;;;16.33;;
23658;SDS011;12006;42.666;23.326;2023-12-29T05:35:24;26.47;;;16.13;;
23658;SDS011;12006;42.666;23.326;2023-12-29T05:37:49;30.37;;;16.33;;
23658;SDS011;12006;42.666;23.326;2023-12-29T05:40:15;24.13;;;15.67;;
23658;SDS011;12006;42.666;23.326;2023-12-29T05:42:40;34.57;;;19.20;;
23658;SDS011;12006;42.666;23.326;2023-12-29T05:45:06;32.77;;;19.83;;
23658;SDS011;12006;42.666;23.326;2023-12-29T05:47:31;33.93;;;21.17;;
23658;SDS011;12006;42.666;23.326;2023-12-29T05:49:56;29.90;;;20.00;;
23658;SDS011;12006;42.666;23.326;2023-12-29T05:52:22;35.00;;;22.07;;
23658;SDS011;12006;42.666;23.326;2023-12-29T05:54:47;33.13;;;21.80;;
23658;SDS011;12006;42.666;23.326;2023-12-29T05:57:12;35.20;;;20.03;;
23658;SDS011;12006;42.666;23.326;2023-12-29T05:59:37;30.93;;;17.77;;
23658;SDS011;12006;42.666;23.326;2023-12-29T06:02:03;28.83;;;18.67;;
23658;SDS011;12006;42.666;23.326;2023-12-29T06:04:28;30.43;;;20.33;;
23658;SDS011;12006;42.666;23.326;2023-12-29T06:06:53;31.63;;;21.10;;
23658;SDS011;12006;42.666;23.326;2023-12-29T06:09:18;43.63;;;21.23;;
23658;SDS011;12006;42.666;23.326;2023-12-29T06:11:44;37.20;;;21.27;;
23658;SDS011;12006;42.666;23.326;2023-12-29T06:14:09;23.83;;;15.47;;
23658;SDS011;12006;42.666;23.326;2023-12-29T06:16:35;26.30;;;17.70;;
23658;SDS011;12006;42.666;23.326;2023-12-29T06:19:00;28.57;;;16.43;;
23658;SDS011;12006;42.666;23.326;2023-12-29T06:21:25;25.90;;;17.80;;
23658;SDS011;12006;42.666;23.326;2023-12-29T06:23:51;28.43;;;18.43;;
23658;SDS011;12006;42.666;23.326;2023-12-29T06:26:17;30.67;;;18.40;;
23658;SDS011;12006;42.666;23.326;2023-12-29T06:28:43;28.57;;;19.40;;
23658;SDS011;12006;42.666;23.326;2023-12-29T06:31:08;32.60;;;20.63;;
23658;SDS011;12006;42.666;23.326;2023-12-29T06:33:33;33.73;;;21.27;;
23658;SDS011;12006;42.666;23.326;2023-12-29T06:35:58;35.00;;;21.73;;
23658;SDS011;12006;42.666;23.326;2023-12-29T06:38:24;32.03;;;21.13;;
23658;SDS011;12006;42.666;23.326;2023-12-29T06:40:49;32.27;;;19.90;;
23658;SDS011;12006;42.666;23.326;2023-12-29T06:43:14;36.37;;;22.50;;
23658;SDS011;12006;42.666;23.326;2023-12-29T06:45:39;37.40;;;21.93;;
23658;SDS011;12006;42.666;23.326;2023-12-29T06:48:05;35.90;;;22.00;;
23658;SDS011;12006;42.666;23.326;2023-12-29T06:50:30;34.23;;;21.97;;
23658;SDS011;12006;42.666;23.326;2023-12-29T06:52:56;32.53;;;20.97;;
23658;SDS011;12006;42.666;23.326;2023-12-29T06:55:21;33.70;;;20.77;;
23658;SDS011;12006;42.666;23.326;2023-12-29T06:57:46;29.67;;;19.10;;
23658;SDS011;12006;42.666;23.326;2023-12-29T07:00:12;30.77;;;18.83;;
23658;SDS011;12006;42.666;23.326;2023-12-29T07:02:38;33.83;;;20.63;;
23658;SDS011;12006;42.666;23.326;2023-12-29T07:05:04;31.53;;;22.27;;
23658;SDS011;12006;42.666;23.326;2023-12-29T07:07:29;31.40;;;21.43;;
23658;SDS011;12006;42.666;23.326;2023-12-29T07:09:55;36.67;;;19.73;;
23658;SDS011;12006;42.666;23.326;2023-12-29T07:12:20;34.43;;;20.70;;
23658;SDS011;12006;42.666;23.326;2023-12-29T07:14:45;33.60;;;21.23;;
23658;SDS011;12006;42.666;23.326;2023-12-29T07:17:11;33.03;;;22.40;;
23658;SDS011;12006;42.666;23.326;2023-12-29T07:19:36;38.27;;;24.73;;
23658;SDS011;12006;42.666;23.326;2023-12-29T07:22:04;33.90;;;20.87;;
23658;SDS011;12006;42.666;23.326;2023-12-29T07:24:30;35.63;;;23.67;;
23658;SDS011;12006;42.666;23.326;2023-12-29T07:26:55;34.97;;;21.03;;
23658;SDS011;12006;42.666;23.326;2023-12-29T07:29:21;33.23;;;20.57;;
23658;SDS011;12006;42.666;23.326;2023-12-29T07:31:46;28.40;;;20.00;;
23658;SDS011;12006;42.666;23.326;2023-12-29T07:34:11;35.03;;;19.40;;
23658;SDS011;12006;42.666;23.326;2023-12-29T07:36:39;32.63;;;20.03;;
23658;SDS011;12006;42.666;23.326;2023-12-29T07:39:05;31.20;;;20.60;;
23658;SDS011;12006;42.666;23.326;2023-12-29T07:41:30;32.67;;;19.57;;
23658;SDS011;12006;42.666;23.326;2023-12-29T07:43:56;34.47;;;21.40;;
23658;SDS011;12006;42.666;23.326;2023-12-29T07:46:24;29.63;;;18.63;;
23658;SDS011;12006;42.666;23.326;2023-12-29T07:48:50;30.17;;;19.03;;
23658;SDS011;12006;42.666;23.326;2023-12-29T07:51:15;31.80;;;19.73;;
23658;SDS011;12006;42.666;23.326;2023-12-29T07:53:41;22.83;;;18.17;;
23658;SDS011;12006;42.666;23.326;2023-12-29T07:56:06;30.13;;;17.07;;
23658;SDS011;12006;42.666;23.326;2023-12-29T07:58:31;23.93;;;15.97;;
23658;SDS011;12006;42.666;23.326;2023-12-29T08:00:57;28.30;;;17.03;;
23658;SDS011;12006;42.666;23.326;2023-12-29T08:03:22;27.03;;;17.73;;
23658;SDS011;12006;42.666;23.326;2023-12-29T08:05:47;24.37;;;16.23;;
23658;SDS011;12006;42.666;23.326;2023-12-29T08:08:12;20.33;;;16.13;;
23658;SDS011;12006;42.666;23.326;2023-12-29T08:10:38;26.40;;;17.83;;
23658;SDS011;12006;42.666;23.326;2023-12-29T08:13:03;27.10;;;18.53;;
23658;SDS011;12006;42.666;23.326;2023-12-29T08:15:28;22.70;;;16.60;;
23658;SDS011;12006;42.666;23.326;2023-12-29T08:17:55;19.37;;;13.77;;
23658;SDS011;12006;42.666;23.326;2023-12-29T08:20:20;20.37;;;15.97;;
23658;SDS011;12006;42.666;23.326;2023-12-29T08:22:47;22.53;;;16.10;;
23658;SDS011;12006;42.666;23.326;2023-12-29T08:25:12;35.50;;;22.23;;
23658;SDS011;12006;42.666;23.326;2023-12-29T08:27:37;39.70;;;26.43;;
23658;SDS011;12006;42.666;23.326;2023-12-29T08:30:03;29.03;;;20.93;;
23658;SDS011;12006;42.666;23.326;2023-12-29T08:32:28;39.20;;;23.20;;
23658;SDS011;12006;42.666;23.326;2023-12-29T08:34:54;34.30;;;22.00;;
23658;SDS011;12006;42.666;23.326;2023-12-29T08:37:19;38.33;;;23.80;;
23658;SDS011;12006;42.666;23.326;2023-12-29T08:39:48;42.63;;;26.37;;
23658;SDS011;12006;42.666;23.326;2023-12-29T08:42:13;39.57;;;26.63;;
23658;SDS011;12006;42.666;23.326;2023-12-29T08:44:39;38.70;;;25.90;;
23658;SDS011;12006;42.666;23.326;2023-12-29T08:47:04;36.37;;;24.97;;
23658;SDS011;12006;42.666;23.326;2023-12-29T08:49:33;39.20;;;25.73;;
23658;SDS011;12006;42.666;23.326;2023-12-29T08:51:58;39.83;;;25.23;;
23658;SDS011;12006;42.666;23.326;2023-12-29T08:54:23;36.87;;;25.50;;
23658;SDS011;12006;42.666;23.326;2023-12-29T08:56:49;34.90;;;24.47;;
23658;SDS011;12006;42.666;23.326;2023-12-29T08:59:14;32.07;;;24.30;;
23658;SDS011;12006;42.666;23.326;2023-12-29T09:01:39;39.83;;;25.17;;
23658;SDS011;12006;42.666;23.326;2023-12-29T09:04:04;36.07;;;24.47;;
23658;SDS011;12006;42.666;23.326;2023-12-29T09:06:30;36.77;;;24.30;;
23658;SDS011;12006;42.666;23.326;2023-12-29T09:08:55;42.57;;;26.67;;
23658;SDS011;12006;42.666;23.326;2023-12-29T09:11:20;40.30;;;26.23;;
23658;SDS011;12006;42.666;23.326;2023-12-29T09:13:45;41.57;;;28.27;;
23658;SDS011;12006;42.666;23.326;2023-12-29T09:16:11;39.93;;;28.40;;
23658;SDS011;12006;42.666;23.326;2023-12-29T09:18:36;43.33;;;29.03;;
23658;SDS011;12006;42.666;23.326;2023-12-29T09:21:01;38.40;;;26.60;;
23658;SDS011;12006;42.666;23.326;2023-12-29T09:23:26;43.23;;;26.53;;
23658;SDS011;12006;42.666;23.326;2023-12-29T09:25:52;40.70;;;27.27;;
23658;SDS011;12006;42.666;23.326;2023-12-29T09:28:17;35.10;;;24.97;;
23658;SDS011;12006;42.666;23.326;2023-12-29T09:30:42;41.87;;;26.63;;
23658;SDS011;12006;42.666;23.326;2023-12-29T09:33:07;37.40;;;27.27;;
23658;SDS011;12006;42.666;23.326;2023-12-29T09:35:35;32.40;;;25.30;;
23658;SDS011;12006;42.666;23.326;2023-12-29T09:38:00;31.87;;;22.83;;
23658;SDS011;12006;42.666;23.326;2023-12-29T09:40:26;36.67;;;22.87;;
23658;SDS011;12006;42.666;23.326;2023-12-29T09:42:52;35.50;;;23.60;;
23658;SDS011;12006;42.666;23.326;2023-12-29T09:45:17;33.80;;;23.40;;
23658;SDS011;12006;42.666;23.326;2023-12-29T09:47:47;31.27;;;21.43;;
23658;SDS011;12006;42.666;23.326;2023-12-29T09:50:13;32.40;;;22.23;;
23658;SDS011;12006;42.666;23.326;2023-12-29T09:52:38;30.13;;;20.43;;
23658;SDS011;12006;42.666;23.326;2023-12-29T09:55:04;30.33;;;20.93;;
23658;SDS011;12006;42.666;23.326;2023-12-29T09:57:30;30.23;;;22.20;;
23658;SDS011;12006;42.666;23.326;2023-12-29T09:59:55;35.17;;;23.07;;
23658;SDS011;12006;42.666;23.326;2023-12-29T10:02:21;35.07;;;26.80;;
23658;SDS011;12006;42.666;23.326;2023-12-29T10:04:47;34.63;;;25.07;;
23658;SDS011;12006;42.666;23.326;2023-12-29T10:07:25;29.67;;;19.57;;
23658;SDS011;12006;42.666;23.326;2023-12-29T10:09:55;29.87;;;21.57;;
23658;SDS011;12006;42.666;23.326;2023-12-29T10:12:20;27.37;;;19.23;;
23658;SDS011;12006;42.666;23.326;2023-12-29T10:14:48;29.90;;;18.03;;
23658;SDS011;12006;42.666;23.326;2023-12-29T10:17:25;24.90;;;18.47;;
23658;SDS011;12006;42.666;23.326;2023-12-29T10:19:55;27.63;;;20.33;;
23658;SDS011;12006;42.666;23.326;2023-12-29T10:22:24;28.33;;;21.63;;
23658;SDS011;12006;42.666;23.326;2023-12-29T10:24:51;29.10;;;19.37;;
23658;SDS011;12006;42.666;23.326;2023-12-29T10:27:16;28.30;;;18.87;;
23658;SDS011;12006;42.666;23.326;2023-12-29T10:29:41;33.53;;;23.73;;
23658;SDS011;12006;42.666;23.326;2023-12-29T10:32:07;35.33;;;23.73;;
23658;SDS011;12006;42.666;23.326;2023-12-29T10:34:32;30.20;;;21.23;;
23658;SDS011;12006;42.666;23.326;2023-12-29T10:36:58;22.73;;;15.97;;
23658;SDS011;12006;42.666;23.326;2023-12-29T10:39:23;17.03;;;13.07;;
23658;SDS011;12006;42.666;23.326;2023-12-29T10:41:49;19.87;;;13.87;;
23658;SDS011;12006;42.666;23.326;2023-12-29T10:44:15;17.97;;;13.20;;
23658;SDS011;12006;42.666;23.326;2023-12-29T10:46:41;16.60;;;13.80;;
23658;SDS011;12006;42.666;23.326;2023-12-29T10:49:09;19.43;;;14.27;;
23658;SDS011;12006;42.666;23.326;2023-12-29T10:51:34;18.13;;;14.07;;
23658;SDS011;12006;42.666;23.326;2023-12-29T10:54:00;22.73;;;14.27;;
23658;SDS011;12006;42.666;23.326;2023-12-29T10:56:25;19.30;;;14.63;;
23658;SDS011;12006;42.666;23.326;2023-12-29T10:59:03;20.77;;;14.20;;
23658;SDS011;12006;42.666;23.326;2023-12-29T11:01:33;20.77;;;13.37;;
23658;SDS011;12006;42.666;23.326;2023-12-29T11:04:02;22.63;;;15.40;;
23658;SDS011;12006;42.666;23.326;2023-12-29T11:06:29;20.70;;;13.80;;
23658;SDS011;12006;42.666;23.326;2023-12-29T11:08:54;17.53;;;13.67;;
23658;SDS011;12006;42.666;23.326;2023-12-29T11:11:20;21.27;;;14.53;;
23658;SDS011;12006;42.666;23.326;2023-12-29T11:13:46;32.43;;;22.23;;
23658;SDS011;12006;42.666;23.326;2023-12-29T11:16:12;29.27;;;22.40;;
23658;SDS011;12006;42.666;23.326;2023-12-29T11:18:37;30.77;;;23.37;;
23658;SDS011;12006;42.666;23.326;2023-12-29T11:21:03;37.50;;;24.63;;
23658;SDS011;12006;42.666;23.326;2023-12-29T11:23:28;34.23;;;25.17;;
23658;SDS011;12006;42.666;23.326;2023-12-29T11:25:53;33.13;;;24.37;;
23658;SDS011;12006;42.666;23.326;2023-12-29T11:28:19;38.23;;;25.57;;
23658;SDS011;12006;42.666;23.326;2023-12-29T11:30:45;33.10;;;25.10;;
23658;SDS011;12006;42.666;23.326;2023-12-29T11:33:34;31.50;;;23.60;;
23658;SDS011;12006;42.666;23.326;2023-12-29T11:36:45;35.60;;;25.47;;
23658;SDS011;12006;42.666;23.326;2023-12-29T11:38:56;36.13;;;25.20;;
23658;SDS011;12006;42.666;23.326;2023-12-29T11:41:43;37.23;;;24.37;;
23658;SDS011;12006;42.666;23.326;2023-12-29T11:44:11;34.30;;;25.50;;
23658;SDS011;12006;42.666;23.326;2023-12-29T11:46:37;38.23;;;26.33;;
23658;SDS011;12006;42.666;23.326;2023-12-29T11:49:03;38.00;;;26.87;;
23658;SDS011;12006;42.666;23.326;2023-12-29T11:51:37;35.40;;;26.23;;
23658;SDS011;12006;42.666;23.326;2023-12-29T11:54:04;42.93;;;28.20;;
23658;SDS011;12006;42.666;23.326;2023-12-29T11:56:40;34.53;;;25.90;;
23658;SDS011;12006;42.666;23.326;2023-12-29T12:01:40;38.87;;;25.70;;
23658;SDS011;12006;42.666;23.326;2023-12-29T12:04:33;35.33;;;24.37;;
23658;SDS011;12006;42.666;23.326;2023-12-29T12:06:50;34.47;;;23.20;;
23658;SDS011;12006;42.666;23.326;2023-12-29T12:09:16;30.37;;;23.00;;
23658;SDS011;12006;42.666;23.326;2023-12-29T12:11:43;30.67;;;22.07;;
23658;SDS011;12006;42.666;23.326;2023-12-29T12:14:08;32.30;;;21.10;;
23658;SDS011;12006;42.666;23.326;2023-12-29T12:19:11;29.50;;;21.93;;
23658;SDS011;12006;42.666;23.326;2023-12-29T12:21:37;33.87;;;24.77;;
23658;SDS011;12006;42.666;23.326;2023-12-29T12:24:05;29.67;;;21.50;;
23658;SDS011;12006;42.666;23.326;2023-12-29T12:26:31;28.37;;;21.33;;
23658;SDS011;12006;42.666;23.326;2023-12-29T12:28:57;26.53;;;19.47;;
23658;SDS011;12006;42.666;23.326;2023-12-29T12:31:22;28.03;;;19.60;;
23658;SDS011;12006;42.666;23.326;2023-12-29T12:33:54;29.00;;;20.10;;
23658;SDS011;12006;42.666;23.326;2023-12-29T12:36:25;29.73;;;18.97;;
23658;SDS011;12006;42.666;23.326;2023-12-29T12:38:55;26.43;;;19.00;;
23658;SDS011;12006;42.666;23.326;2023-12-29T12:41:20;26.10;;;19.03;;
23658;SDS011;12006;42.666;23.326;2023-12-29T12:43:49;26.60;;;18.80;;
23658;SDS011;12006;42.666;23.326;2023-12-29T12:46:15;27.83;;;19.13;;
23658;SDS011;12006;42.666;23.326;2023-12-29T12:48:44;26.23;;;17.13;;
23658;SDS011;12006;42.666;23.326;2023-12-29T12:51:10;25.90;;;17.37;;
23658;SDS011;12006;42.666;23.326;2023-12-29T12:53:40;28.40;;;19.00;;
23658;SDS011;12006;42.666;23.326;2023-12-29T12:56:05;28.60;;;18.03;;
23658;SDS011;12006;42.666;23.326;2023-12-29T12:58:31;29.30;;;19.10;;
23658;SDS011;12006;42.666;23.326;2023-12-29T13:00:57;24.50;;;15.60;;
23658;SDS011;12006;42.666;23.326;2023-12-29T13:03:22;20.00;;;14.40;;
23658;SDS011;12006;42.666;23.326;2023-12-29T13:05:47;23.57;;;15.50;;
23658;SDS011;12006;42.666;23.326;2023-12-29T13:08:13;22.07;;;13.67;;
23658;SDS011;12006;42.666;23.326;2023-12-29T13:10:42;22.53;;;15.03;;
23658;SDS011;12006;42.666;23.326;2023-12-29T13:13:08;21.57;;;13.57;;
23658;SDS011;12006;42.666;23.326;2023-12-29T13:15:33;21.20;;;11.93;;
23658;SDS011;12006;42.666;23.326;2023-12-29T13:17:58;16.80;;;10.57;;
23658;SDS011;12006;42.666;23.326;2023-12-29T13:20:24;16.50;;;12.07;;
23658;SDS011;12006;42.666;23.326;2023-12-29T13:22:49;21.80;;;13.20;;
23658;SDS011;12006;42.666;23.326;2023-12-29T13:25:21;23.03;;;14.07;;
23658;SDS011;12006;42.666;23.326;2023-12-29T13:27:49;21.00;;;12.93;;
23658;SDS011;12006;42.666;23.326;2023-12-29T13:30:15;17.40;;;11.10;;
23658;SDS011;12006;42.666;23.326;2023-12-29T13:32:41;18.33;;;11.47;;
23658;SDS011;12006;42.666;23.326;2023-12-29T13:37:51;13.17;;;9.23;;
23658;SDS011;12006;42.666;23.326;2023-12-29T13:40:26;12.00;;;8.37;;
23658;SDS011;12006;42.666;23.326;2023-12-29T13:42:54;11.43;;;7.57;;
23658;SDS011;12006;42.666;23.326;2023-12-29T13:45:20;9.97;;;6.67;;
23658;SDS011;12006;42.666;23.326;2023-12-29T13:47:45;9.30;;;7.07;;
23658;SDS011;12006;42.666;23.326;2023-12-29T13:50:11;10.40;;;6.57;;
23658;SDS011;12006;42.666;23.326;2023-12-29T13:52:37;12.30;;;6.77;;
23658;SDS011;12006;42.666;23.326;2023-12-29T13:55:02;7.13;;;5.33;;
23658;SDS011;12006;42.666;23.326;2023-12-29T13:57:34;8.70;;;5.60;;
23658;SDS011;12006;42.666;23.326;2023-12-29T14:02:47;9.83;;;5.57;;
23658;SDS011;12006;42.666;23.326;2023-12-29T14:05:20;8.67;;;5.93;;
23658;SDS011;12006;42.666;23.326;2023-12-29T14:07:52;8.63;;;5.50;;
23658;SDS011;12006;42.666;23.326;2023-12-29T14:10:18;7.00;;;6.30;;
23658;SDS011;12006;42.666;23.326;2023-12-29T14:12:43;8.30;;;5.70;;